Germantown, Wisconsin
Current Conditions -  °F | °C
As of 5:35 AM on Friday 21 Nov 2014 (Local Time) from KMWC Reporting Station
Clear Clear  
Wind Chill:   Ceiling: Unl
Heat Index:   Visibility: 10mi
Dew Point:   Wind: 3mph
Humidity: 67%   Direction: 240°WSW
Pressure: 30.39"   Gusts: NA
Location:  43.22°N, 88.12°W
Report Text: KMWC 211135Z AUTO 24003KT 10SM CLR M13/M18 A3039 RMK AO2
Loading
Personal Weather Stations






























Interactive Weather Map New forecast layout! Learn more

10-Day Weather Forecast

Advertisements
Track Severe Weather on mobile